KSVH/SVH METAR and TAF weather

Enter ICAO airport designator
Station Type Date Time Source
KSVH METAR 2020/04/06 11:35 UTC NOAA

KSVH 061135Z AUTO 00000KT 10SM CLR 10/09 A3007 RMK AO2 T01000090


Station Type Date Time Source
KSVH Decoded METAR 2020/04/06 11:35 UTC NOAA

Statesville, Statesville Municipal Airport, NC, United States (KSVH) 35-45-55N 080-57-24W
Apr 06, 2020 - 07:35 AM EDT / 2020.04.06 1135 UTC
Wind: Calm:0
Visibility: 10 mile(s):0
Sky conditions: clear
Temperature: 50.0 F (10.0 C)
Dew Point: 48.2 F (9.0 C)
Relative Humidity: 93%
Pressure (altimeter): 30.07 in. Hg (1018 hPa)
ob: KSVH 061135Z AUTO 00000KT 10SM CLR 10/09 A3007 RMK AO2 T01000090
cycle: 11

Station Type Date Time Source
KSVH TAF UTC NOAA

Error!

Example: see airport list